Аэропорт: Бегишево. Набережные Челны, Нижнекамск

ICAO: UWKE

METAR:
2021-04-21 21:00:00
UWKE 212100Z 21007MPS 9999 OVC023 07/M03 Q1024 R21/090070 NOSIG RMK QFE751/1002
METAR:
2021-04-21 19:45:00
TAF UWKE 211945Z 2121/2221 19006G12MPS 9999 BKN020 TEMPO 2121/2209 17010G18MPS 3100 -RA BKN005 TEMPO 2209/2218 18007G14MPS 6000 -SHRA BKN016CB